Time;durP1;ratioP1;P1;durP2;ratioP2;P2;SDS_P1;SDS_P2;PMS_P1;PMS_P2;Temp;Humidity;BMP_temperature;BMP_pressure;BME280_temperature;BME280_humidity;BME280_pressure;Samples;Min_cycle;Max_cycle;Signal;HPM_P1;HPM_P2
2023/12/14 04:57:06;;;;;;;14.27;9.18;;;;;;;8.94;68.63;101276.72;6144571;23;1264075;-67
2023/12/14 04:59:34;;;;;;;13.27;8.60;;;;;;;8.96;68.49;101295.28;6195687;23;20025;-70
2023/12/14 05:02:02;;;;;;;10.90;8.75;;;;;;;8.91;68.46;101289.69;6194145;23;20025;-70
2023/12/14 05:04:30;;;;;;;12.20;9.32;;;;;;;8.88;68.37;101298.97;6196309;23;20075;-70
2023/12/14 05:06:57;;;;;;;13.07;9.13;;;;;;;8.88;67.66;101300.81;6196365;23;20025;-70
2023/12/14 05:09:25;;;;;;;11.25;8.82;;;;;;;8.89;67.92;101299.78;6196063;23;20047;-70
2023/12/14 05:11:53;;;;;;;10.70;8.82;;;;;;;8.89;68.05;101300.63;6195339;23;20056;-71
2023/12/14 05:14:23;;;;;;;11.82;8.60;;;;;;;8.88;68.46;101308.84;6196137;23;20028;-70
2023/12/14 05:16:51;;;;;;;12.20;8.85;;;;;;;8.88;68.37;101314.22;6195196;23;20102;-70
2023/12/14 05:19:19;;;;;;;13.43;9.05;;;;;;;8.81;68.21;101322.22;6196581;23;20075;-71
2023/12/14 05:21:47;;;;;;;14.13;9.23;;;;;;;8.78;67.96;101334.19;6195713;23;20084;-70
2023/12/14 05:24:15;;;;;;;12.65;9.02;;;;;;;8.76;67.55;101330.03;6195937;23;20025;-65
2023/12/14 05:26:43;;;;;;;13.93;10.02;;;;;;;8.78;68.02;101341.38;6195986;23;20028;-65
2023/12/14 05:29:11;;;;;;;13.05;9.93;;;;;;;8.79;68.24;101351.09;6196163;23;20264;-65
2023/12/14 05:31:40;;;;;;;12.05;9.00;;;;;;;8.79;68.22;101349.22;6194760;23;20100;-65
2023/12/14 05:34:08;;;;;;;12.77;9.52;;;;;;;8.77;68.71;101356.63;6196294;23;20025;-65
2023/12/14 05:36:36;;;;;;;16.85;8.95;;;;;;;8.64;68.35;101353.09;6197691;23;20043;-64
2023/12/14 05:39:04;;;;;;;13.85;9.23;;;;;;;8.73;68.12;101382.19;6197747;23;20048;-65
2023/12/14 05:41:32;;;;;;;11.55;9.27;;;;;;;8.70;67.68;101371.03;6197383;23;20035;-65
2023/12/14 05:44:00;;;;;;;11.27;9.07;;;;;;;8.75;68.36;101379.31;6195696;23;20025;-66
2023/12/14 05:46:28;;;;;;;12.32;9.98;;;;;;;8.77;68.16;101386.13;6197138;23;20079;-65
2023/12/14 05:48:57;;;;;;;13.32;10.02;;;;;;;8.78;67.83;101393.13;6196076;23;20044;-64
2023/12/14 05:51:29;;;;;;;14.00;9.52;;;;;;;8.75;68.39;101404.25;6197114;23;20031;-65
2023/12/14 05:53:57;;;;;;;11.90;9.73;;;;;;;8.71;68.28;101405.66;6192451;23;20041;-66
2023/12/14 05:56:25;;;;;;;14.93;9.10;;;;;;;8.70;68.60;101424.63;6193702;23;20091;-66
2023/12/14 05:58:53;;;;;;;11.82;9.25;;;;;;;8.58;68.79;101424.34;6195469;23;20125;-63
2023/12/14 06:01:21;;;;;;;14.13;9.25;;;;;;;8.59;68.69;101427.84;6188580;23;20029;-66
2023/12/14 06:03:49;;;;;;;11.43;9.93;;;;;;;8.61;68.00;101431.16;6190932;23;20083;-63
2023/12/14 06:06:18;;;;;;;11.77;9.20;;;;;;;8.65;67.91;101427.09;6191638;23;20036;-63
2023/12/14 06:08:47;;;;;;;13.18;9.57;;;;;;;8.67;68.18;101433.88;6190815;23;20218;-63
2023/12/14 06:11:14;;;;;;;12.15;9.43;;;;;;;8.68;68.46;101440.88;6191486;23;20029;-63
2023/12/14 06:13:43;;;;;;;14.98;9.95;;;;;;;8.58;68.33;101437.75;6190768;23;20025;-62
2023/12/14 06:16:12;;;;;;;12.82;9.52;;;;;;;8.53;67.89;101437.50;6190321;23;20033;-64
2023/12/14 06:18:43;;;;;;;14.38;9.77;;;;;;;8.54;68.07;101444.50;6195363;23;20033;-60
2023/12/14 06:21:12;;;;;;;14.25;9.48;;;;;;;8.56;68.04;101450.50;6195222;23;20281;-63
2023/12/14 06:23:42;;;;;;;12.70;9.85;;;;;;;8.59;67.94;101455.47;6193937;23;20547;-61
2023/12/14 06:26:10;;;;;;;12.27;9.88;;;;;;;8.61;67.61;101452.59;6194341;23;20241;-62
2023/12/14 06:28:38;;;;;;;11.40;9.68;;;;;;;8.64;67.47;101458.41;6195465;23;20052;-61
2023/12/14 06:31:07;;;;;;;13.45;10.30;;;;;;;8.62;67.84;101462.31;6195720;23;20065;-64
2023/12/14 06:33:35;;;;;;;11.63;9.32;;;;;;;8.63;68.05;101470.16;6192821;23;20428;-60
2023/12/14 06:36:04;;;;;;;14.10;9.82;;;;;;;8.53;67.74;101480.38;6192229;23;20348;-64
2023/12/14 06:38:33;;;;;;;12.60;9.95;;;;;;;8.55;67.78;101489.03;6190747;23;20290;-64
2023/12/14 06:41:02;;;;;;;15.95;9.73;;;;;;;8.56;67.96;101488.00;6190021;23;20083;-63
2023/12/14 06:43:30;;;;;;;13.38;9.52;;;;;;;8.57;67.82;101497.72;6190517;23;20215;-62
2023/12/14 06:45:58;;;;;;;12.50;10.07;;;;;;;8.54;67.77;101494.59;6191224;23;20028;-63
2023/12/14 06:48:26;;;;;;;16.33;10.40;;;;;;;8.58;67.46;101495.88;6189607;23;20040;-62
2023/12/14 06:50:54;;;;;;;12.93;9.80;;;;;;;8.56;68.02;101487.19;6190636;23;20029;-63
2023/12/14 06:53:22;;;;;;;13.15;9.25;;;;;;;8.59;67.94;101495.66;6189966;23;20052;-64
2023/12/14 06:55:50;;;;;;;12.45;9.38;;;;;;;8.61;67.90;101498.16;6190513;23;20049;-63
2023/12/14 06:58:19;;;;;;;13.15;9.10;;;;;;;8.57;67.90;101507.59;6191520;23;20058;-62
2023/12/14 07:00:48;;;;;;;12.25;8.95;;;;;;;8.50;67.60;101498.66;6191634;23;20028;-63
2023/12/14 07:03:16;;;;;;;13.38;9.68;;;;;;;8.52;67.80;101502.00;6191299;23;20028;-62
2023/12/14 07:05:45;;;;;;;10.80;8.75;;;;;;;8.52;67.97;101510.84;6191580;23;20055;-63
2023/12/14 07:08:13;;;;;;;10.90;8.82;;;;;;;8.52;67.63;101515.38;6189425;23;20043;-61
2023/12/14 07:10:42;;;;;;;11.68;9.23;;;;;;;8.48;67.83;101533.69;6194765;23;20558;-65
2023/12/14 07:13:10;;;;;;;12.55;9.93;;;;;;;8.45;68.32;101534.91;6196037;23;20025;-63
2023/12/14 07:15:39;;;;;;;14.40;10.02;;;;;;;8.47;67.92;101538.22;6195887;23;20080;-62
2023/12/14 07:18:07;;;;;;;11.38;8.88;;;;;;;8.54;67.68;101546.31;6195712;23;20021;-63
2023/12/14 07:20:35;;;;;;;13.48;9.38;;;;;;;8.46;68.69;101552.63;6196224;23;20024;-62
2023/12/14 07:23:02;;;;;;;15.52;10.40;;;;;;;8.40;68.93;101558.75;6195367;23;20052;-62
2023/12/14 07:25:30;;;;;;;16.52;10.18;;;;;;;8.39;68.61;101569.66;6194936;23;20025;-62
2023/12/14 07:27:58;;;;;;;15.40;10.30;;;;;;;8.33;68.41;101573.91;6195466;23;20079;-62
2023/12/14 07:30:26;;;;;;;15.93;10.43;;;;;;;8.36;68.64;101581.56;6195852;23;20039;-62
2023/12/14 07:32:55;;;;;;;16.77;10.82;;;;;;;8.28;68.49;101584.34;6195005;23;20039;-63
2023/12/14 07:35:23;;;;;;;18.35;10.88;;;;;;;8.24;69.17;101590.25;6196109;23;20322;-64
2023/12/14 07:37:51;;;;;;;18.00;11.55;;;;;;;8.22;69.51;101592.28;6194866;23;20420;-63
2023/12/14 07:40:19;;;;;;;17.50;11.18;;;;;;;8.21;69.63;101587.94;6195253;23;20310;-61
2023/12/14 07:42:47;;;;;;;23.90;12.18;;;;;;;8.14;69.37;101594.06;6195129;23;20025;-62
2023/12/14 07:45:15;;;;;;;18.63;12.80;;;;;;;8.13;69.45;101599.59;6196031;23;20517;-62
2023/12/14 07:47:43;;;;;;;19.80;11.77;;;;;;;8.11;68.94;101599.78;6194430;23;20025;-64
2023/12/14 07:50:13;;;;;;;18.95;11.77;;;;;;;8.11;69.34;101591.75;6196097;23;20021;-62
2023/12/14 07:52:41;;;;;;;16.70;11.48;;;;;;;8.19;68.94;101611.41;6195033;23;20025;-64
2023/12/14 07:55:09;;;;;;;21.77;13.10;;;;;;;8.21;68.79;101618.25;6194862;23;20025;-62
2023/12/14 07:57:37;;;;;;;21.17;11.80;;;;;;;8.18;69.54;101623.13;6195138;23;20036;-63
2023/12/14 08:00:08;;;;;;;24.00;12.07;;;;;;;8.17;69.43;101627.66;6195716;23;20024;-62
2023/12/14 08:02:36;;;;;;;19.08;12.18;;;;;;;8.19;69.22;101630.16;6196411;23;20027;-65
2023/12/14 08:05:05;;;;;;;18.40;12.05;;;;;;;8.23;68.49;101639.47;6197852;23;20322;-64
2023/12/14 08:07:34;;;;;;;21.92;12.38;;;;;;;8.23;69.00;101642.97;6197522;23;20375;-65
2023/12/14 08:10:02;;;;;;;19.27;12.20;;;;;;;8.23;69.32;101648.34;6197190;23;20445;-63
2023/12/14 08:12:29;;;;;;;18.25;11.35;;;;;;;8.10;68.88;101650.84;6197297;23;20056;-63
2023/12/14 08:14:57;;;;;;;16.08;10.07;;;;;;;8.10;68.32;101651.66;6197689;23;20021;-64
2023/12/14 08:17:26;;;;;;;20.25;11.27;;;;;;;8.06;67.91;101658.41;6197426;23;20064;-62
2023/12/14 08:19:54;;;;;;;20.25;11.63;;;;;;;8.00;68.93;101661.00;6197138;23;20059;-63
2023/12/14 08:22:22;;;;;;;16.05;10.23;;;;;;;8.00;68.99;101661.00;6198101;23;20025;-64
2023/12/14 08:24:51;;;;;;;19.80;12.18;;;;;;;7.98;69.02;101663.84;6196390;23;20036;-63
2023/12/14 08:27:19;;;;;;;19.42;10.60;;;;;;;8.04;68.26;101673.81;6198031;23;20025;-64
2023/12/14 08:29:47;;;;;;;23.02;10.90;;;;;;;8.10;68.55;101675.75;6197161;23;20087;-63
2023/12/14 08:32:15;;;;;;;16.08;10.20;;;;;;;8.06;67.93;101673.66;6197194;23;20068;-63
2023/12/14 08:34:42;;;;;;;17.58;10.25;;;;;;;8.06;68.13;101685.19;6197504;23;20025;-63
2023/12/14 08:37:10;;;;;;;13.95;9.35;;;;;;;8.00;68.51;101679.72;6197921;23;20032;-64
2023/12/14 08:39:38;;;;;;;18.65;10.10;;;;;;;8.08;67.55;101687.69;6196069;23;20055;-63
2023/12/14 08:42:07;;;;;;;16.08;9.40;;;;;;;8.07;68.69;101694.03;6197494;23;20028;-63
2023/12/14 08:44:35;;;;;;;16.08;10.25;;;;;;;8.05;67.53;101693.41;6194473;23;20048;-63
2023/12/14 08:47:04;;;;;;;14.57;9.07;;;;;;;8.03;67.83;101706.13;6197055;23;20024;-63
2023/12/14 08:49:32;;;;;;;16.50;8.98;;;;;;;7.97;68.43;101707.69;6196882;23;20025;-64
2023/12/14 08:52:00;;;;;;;15.55;9.18;;;;;;;7.98;68.14;101716.56;6197059;23;20017;-62
2023/12/14 08:54:28;;;;;;;13.95;8.48;;;;;;;7.94;67.76;101723.28;6195886;23;20025;-62
2023/12/14 08:56:56;;;;;;;15.43;8.02;;;;;;;7.93;67.96;101722.47;6197172;23;20028;-63
2023/12/14 08:59:25;;;;;;;13.77;9.05;;;;;;;7.89;67.67;101731.88;6197300;23;20025;-64
2023/12/14 09:01:53;;;;;;;14.30;8.63;;;;;;;7.87;68.54;101733.06;6197528;23;20048;-64
2023/12/14 09:04:21;;;;;;;14.07;8.57;;;;;;;8.01;67.61;101729.59;6196664;23;20029;-63
2023/12/14 09:06:49;;;;;;;12.15;7.55;;;;;;;8.08;66.84;101730.50;6197466;23;20025;-61
2023/12/14 09:09:18;;;;;;;20.33;8.20;;;;;;;8.33;66.46;101733.78;6196500;23;20052;-61
2023/12/14 09:11:46;;;;;;;12.52;7.82;;;;;;;8.57;66.05;101738.00;6196153;23;20031;-62
2023/12/14 09:14:14;;;;;;;11.93;6.72;;;;;;;8.77;64.84;101742.56;6197555;23;20025;-62
2023/12/14 09:16:44;;;;;;;17.70;7.72;;;;;;;8.96;64.58;101751.03;6196807;23;20106;-61
2023/12/14 09:19:11;;;;;;;11.57;7.50;;;;;;;9.17;63.73;101751.06;6196324;23;20128;-62
2023/12/14 09:21:39;;;;;;;13.13;7.55;;;;;;;9.28;63.00;101763.13;6196861;23;20021;-61
2023/12/14 09:24:13;;;;;;;13.68;7.65;;;;;;;9.28;62.88;101772.00;6195961;23;20441;-62
2023/12/14 09:26:41;;;;;;;11.55;7.22;;;;;;;9.29;63.31;101767.47;6196590;23;20076;-61
2023/12/14 09:29:09;;;;;;;11.13;7.85;;;;;;;9.42;62.99;101770.28;6196702;23;20077;-63
2023/12/14 09:31:37;;;;;;;10.55;6.90;;;;;;;9.48;62.22;101777.56;6196962;23;20059;-64
2023/12/14 09:34:06;;;;;;;10.73;7.13;;;;;;;9.38;62.33;101785.94;6196215;23;20109;-63
2023/12/14 09:36:34;;;;;;;12.70;7.45;;;;;;;9.23;62.74;101798.56;6197064;23;20111;-62
2023/12/14 09:39:03;;;;;;;10.07;6.80;;;;;;;9.00;63.40;101798.72;6195548;23;20025;-63
2023/12/14 09:41:30;;;;;;;10.52;7.25;;;;;;;8.94;63.40;101804.00;6197062;23;20055;-62
2023/12/14 09:43:59;;;;;;;10.20;5.75;;;;;;;8.86;64.00;101804.09;6196810;23;20029;-63
2023/12/14 09:46:28;;;;;;;9.10;6.65;;;;;;;8.78;64.59;101816.59;6196822;23;20102;-63
2023/12/14 09:48:58;;;;;;;10.32;6.55;;;;;;;8.73;64.64;101821.69;6196470;23;20021;-63
2023/12/14 09:51:27;;;;;;;8.95;6.40;;;;;;;8.48;65.21;101823.84;6196645;23;20390;-63
2023/12/14 09:53:57;;;;;;;10.30;6.65;;;;;;;8.39;64.63;101837.50;6194891;23;20025;-64
2023/12/14 09:56:26;;;;;;;12.95;7.25;;;;;;;8.29;65.79;101837.72;6196426;23;20024;-63
2023/12/14 09:58:54;;;;;;;9.40;7.38;;;;;;;8.26;65.76;101838.09;6196379;23;20486;-63
2023/12/14 10:01:24;;;;;;;9.88;6.63;;;;;;;8.15;65.16;101838.53;6196747;23;20029;-63
2023/12/14 10:04:09;;;;;;;10.45;6.07;;;;;;;8.07;65.73;101835.94;6196191;23;20047;-63
2023/12/14 10:06:39;;;;;;;9.70;6.53;;;;;;;8.13;65.45;101853.94;6196798;23;20081;-64
2023/12/14 10:09:09;;;;;;;11.85;6.22;;;;;;;8.20;65.83;101848.69;6195190;23;20076;-65
2023/12/14 10:11:37;;;;;;;11.48;6.13;;;;;;;8.16;66.22;101862.44;6195661;23;20017;-63
2023/12/14 10:14:18;;;;;;;10.63;6.38;;;;;;;8.15;65.69;101859.97;6195970;23;20050;-63
2023/12/14 10:16:46;;;;;;;10.98;6.03;;;;;;;8.18;66.21;101875.66;6196441;23;20068;-63
2023/12/14 10:19:14;;;;;;;9.80;6.35;;;;;;;8.15;65.78;101876.84;6194922;23;20100;-64
2023/12/14 10:21:44;;;;;;;9.48;7.07;;;;;;;8.08;65.56;101873.22;6196365;23;20029;-64
2023/12/14 10:24:12;;;;;;;9.52;6.13;;;;;;;8.16;65.59;101870.47;6194374;23;20060;-64
2023/12/14 10:26:41;;;;;;;9.32;6.07;;;;;;;8.16;65.40;101873.16;6196001;23;20033;-64
2023/12/14 10:29:09;;;;;;;9.52;6.07;;;;;;;8.19;66.09;101879.16;6196295;23;20052;-63
2023/12/14 10:31:38;;;;;;;8.98;5.82;;;;;;;8.16;65.77;101880.38;6195029;23;20017;-64
2023/12/14 10:34:06;;;;;;;9.27;5.82;;;;;;;8.15;65.66;101884.06;6195572;23;20025;-64
2023/12/14 10:36:34;;;;;;;9.00;6.47;;;;;;;8.07;66.19;101884.13;6196138;23;20085;-64
2023/12/14 10:39:05;;;;;;;8.88;6.60;;;;;;;7.97;65.86;101884.38;6194406;23;20083;-64
2023/12/14 10:41:34;;;;;;;9.13;6.65;;;;;;;8.03;66.08;101877.47;6195479;23;20021;-63
2023/12/14 10:44:03;;;;;;;10.48;5.60;;;;;;;8.03;65.68;101880.13;6196249;23;20145;-64
2023/12/14 10:46:55;;;;;;;9.80;5.47;;;;;;;7.97;66.51;101883.53;6195325;23;20035;-64
2023/12/14 10:49:25;;;;;;;8.32;6.18;;;;;;;8.03;65.34;101880.97;6195662;23;20039;-64
2023/12/14 10:51:55;;;;;;;8.45;5.88;;;;;;;8.00;65.99;101886.69;6195550;23;20020;-63
2023/12/14 10:54:26;;;;;;;11.73;6.93;;;;;;;8.04;65.55;101890.66;6194944;23;20024;-63
2023/12/14 10:56:56;;;;;;;11.05;6.28;;;;;;;7.93;66.14;101892.94;6195052;23;20029;-63
2023/12/14 10:59:25;;;;;;;9.98;6.40;;;;;;;7.92;66.38;101899.28;6196202;23;20081;-64
2023/12/14 11:01:54;;;;;;;9.88;6.47;;;;;;;7.91;65.82;101901.13;6196111;23;20017;-68
2023/12/14 11:04:22;;;;;;;12.90;6.35;;;;;;;7.82;66.23;101892.34;6195063;23;20103;-66
2023/12/14 11:06:50;;;;;;;10.13;6.97;;;;;;;7.83;66.77;101910.06;6195039;23;20099;-67
2023/12/14 11:09:19;;;;;;;12.10;6.90;;;;;;;7.80;65.75;101913.09;6195017;23;20044;-67
2023/12/14 11:11:59;;;;;;;10.80;6.63;;;;;;;7.77;66.23;101909.94;6195764;23;20021;-67
2023/12/14 11:14:28;;;;;;;10.20;6.97;;;;;;;7.76;65.88;101916.31;6195650;23;20032;-67
2023/12/14 11:16:57;;;;;;;12.05;7.20;;;;;;;7.78;66.35;101908.94;6195728;23;20031;-67
2023/12/14 11:19:30;;;;;;;10.90;7.20;;;;;;;7.88;65.85;101919.41;6195754;23;20439;-67
2023/12/14 11:22:15;;;;;;;10.23;6.10;;;;;;;7.96;65.35;101925.53;6195546;23;20367;-67
2023/12/14 11:24:44;;;;;;;8.40;6.15;;;;;;;7.90;66.33;101928.09;6192201;23;20161;-67
2023/12/14 11:27:14;;;;;;;9.88;6.60;;;;;;;7.87;65.51;101931.13;6194422;23;20067;-67
2023/12/14 11:29:43;;;;;;;10.60;5.97;;;;;;;7.84;65.81;101941.16;6195883;23;20032;-67
2023/12/14 11:32:11;;;;;;;10.32;6.70;;;;;;;7.81;65.62;101940.69;6194743;23;20020;-67
2023/12/14 11:34:40;;;;;;;8.68;6.13;;;;;;;7.84;64.85;101941.16;6195884;23;20025;-69
2023/12/14 11:37:08;;;;;;;12.48;7.78;;;;;;;7.81;64.04;101954.06;6194135;23;20025;-68
2023/12/14 11:39:38;;;;;;;12.65;6.85;;;;;;;7.79;64.84;101946.22;6193251;23;20324;-68
2023/12/14 11:42:08;;;;;;;11.70;6.22;;;;;;;7.75;65.16;101952.09;6195299;23;20052;-68
2023/12/14 11:44:38;;;;;;;10.27;6.72;;;;;;;7.72;64.88;101947.94;6196059;23;20021;-68
2023/12/14 11:47:06;;;;;;;12.43;7.07;;;;;;;7.70;65.21;101949.94;6195366;23;20025;-68
2023/12/14 11:49:34;;;;;;;15.48;6.40;;;;;;;7.69;65.73;101948.28;6194682;23;20024;-68
2023/12/14 11:52:04;;;;;;;11.30;6.35;;;;;;;7.70;65.73;101949.94;6194666;23;20025;-68
2023/12/14 11:54:32;;;;;;;8.30;5.65;;;;;;;7.71;65.74;101946.25;6194569;23;20021;-68
2023/12/14 11:57:02;;;;;;;8.75;5.90;;;;;;;7.67;65.53;101952.97;6194445;23;20454;-68
2023/12/14 11:59:32;;;;;;;8.68;5.95;;;;;;;7.71;65.68;101948.09;6195268;23;20017;-67
2023/12/14 12:02:02;;;;;;;10.63;6.32;;;;;;;7.77;65.41;101942.03;6195952;23;20029;-68
2023/12/14 12:04:30;;;;;;;7.75;5.50;;;;;;;7.74;65.87;101958.47;6195108;23;20045;-67
2023/12/14 12:07:03;;;;;;;9.77;6.68;;;;;;;7.78;65.09;101944.53;6188847;23;20036;-68
2023/12/14 12:09:40;;;;;;;7.45;5.45;;;;;;;7.79;65.43;101948.06;6189242;23;20599;-68
2023/12/14 12:12:10;;;;;;;8.02;5.32;;;;;;;7.82;64.72;101945.03;6190777;23;20033;-68
2023/12/14 12:14:39;;;;;;;10.82;5.78;;;;;;;7.85;65.38;101950.03;6191359;23;20624;-68
2023/12/14 12:17:09;;;;;;;7.68;5.70;;;;;;;7.80;65.41;101955.06;6190393;23;20083;-67
2023/12/14 12:19:38;;;;;;;8.15;6.20;;;;;;;7.79;65.45;101940.88;6190961;23;20039;-68
2023/12/14 12:22:06;;;;;;;7.50;5.53;;;;;;;7.87;64.63;101945.31;6191087;23;20370;-67
2023/12/14 12:24:34;;;;;;;8.77;5.43;;;;;;;7.88;65.39;101948.84;6190500;23;20029;-67
2023/12/14 12:27:02;;;;;;;9.60;5.80;;;;;;;7.89;64.91;101948.66;6191225;23;20049;-67
2023/12/14 12:29:29;;;;;;;8.30;5.60;;;;;;;7.92;64.38;101966.22;6189731;23;20028;-68
2023/12/14 12:31:57;;;;;;;11.75;6.22;;;;;;;7.81;65.79;101962.94;6191395;23;20258;-68
2023/12/14 12:34:27;;;;;;;11.50;5.53;;;;;;;7.81;65.58;101959.41;6190467;23;20087;-67
2023/12/14 12:36:57;;;;;;;8.00;5.65;;;;;;;7.76;65.44;101967.97;6190670;23;20029;-67
2023/12/14 12:39:25;;;;;;;8.18;5.25;;;;;;;7.74;64.79;101969.16;6189996;23;20040;-68
2023/12/14 12:41:53;;;;;;;8.40;5.13;;;;;;;7.74;65.57;101971.84;6190273;23;20037;-68
2023/12/14 12:44:21;;;;;;;8.13;5.72;;;;;;;7.76;65.07;101983.19;6191309;23;20021;-68
2023/12/14 12:46:49;;;;;;;8.15;5.03;;;;;;;7.81;65.27;101986.19;6191918;23;20047;-67
2023/12/14 12:49:32;;;;;;;7.28;5.00;;;;;;;7.80;64.81;101981.84;6192547;23;20052;-68
2023/12/14 12:52:00;;;;;;;10.27;5.25;;;;;;;7.86;65.05;101988.31;6192948;23;20032;-68
2023/12/14 12:54:28;;;;;;;7.50;5.18;;;;;;;7.88;64.45;101991.66;6190235;23;20090;-68
2023/12/14 12:56:56;;;;;;;9.18;5.18;;;;;;;7.84;64.48;101997.38;6192160;23;20327;-68
2023/12/14 12:59:24;;;;;;;8.07;5.07;;;;;;;7.88;65.04;101997.00;6192373;23;20029;-67
2023/12/14 13:01:52;;;;;;;8.32;4.95;;;;;;;7.89;64.51;101996.84;6192790;23;20032;-67
2023/12/14 13:04:20;;;;;;;8.50;5.38;;;;;;;7.90;65.01;102001.19;6192234;23;20024;-67
2023/12/14 13:06:50;;;;;;;10.40;5.80;;;;;;;7.93;64.45;101994.66;6192687;23;20087;-68
2023/12/14 13:09:20;;;;;;;8.45;5.55;;;;;;;7.96;64.99;102002.31;6191892;23;20031;-67
2023/12/14 13:11:48;;;;;;;7.65;4.72;;;;;;;8.00;65.51;102000.97;6190231;23;20035;-68
2023/12/14 13:14:15;;;;;;;8.27;5.25;;;;;;;8.01;64.87;102000.78;6192264;23;20024;-68
2023/12/14 13:16:44;;;;;;;7.10;4.43;;;;;;;8.02;64.96;102006.97;6193673;23;20021;-67
2023/12/14 13:19:12;;;;;;;8.13;5.88;;;;;;;8.01;64.83;102007.97;6196420;23;20466;-67
2023/12/14 13:21:40;;;;;;;9.27;5.93;;;;;;;7.97;65.50;102015.53;6196504;23;20025;-68
2023/12/14 13:24:09;;;;;;;7.90;5.97;;;;;;;8.00;65.38;102027.72;6196178;23;20021;-67
2023/12/14 13:26:37;;;;;;;7.22;4.70;;;;;;;7.99;65.30;102036.78;6195647;23;20076;-67
2023/12/14 13:29:05;;;;;;;8.82;4.78;;;;;;;7.97;65.38;102033.44;6196001;23;20029;-67
2023/12/14 13:31:33;;;;;;;6.70;5.07;;;;;;;7.94;65.08;102033.78;6195672;23;20389;-68
2023/12/14 13:34:01;;;;;;;9.07;5.70;;;;;;;7.93;65.17;102034.78;6194653;23;20021;-68
2023/12/14 13:36:29;;;;;;;9.15;5.85;;;;;;;7.96;65.40;102035.28;6195659;23;20080;-69
2023/12/14 13:38:58;;;;;;;7.43;5.32;;;;;;;7.96;65.11;102035.28;6195304;23;20076;-66
2023/12/14 13:41:27;;;;;;;8.60;5.20;;;;;;;7.99;65.59;102044.81;6194855;23;20025;-67
2023/12/14 13:43:55;;;;;;;7.80;5.43;;;;;;;7.92;65.62;102030.44;6195200;23;20151;-67
2023/12/14 13:46:23;;;;;;;7.05;5.43;;;;;;;8.01;64.69;102048.97;6194857;23;20029;-66
2023/12/14 13:48:52;;;;;;;8.13;5.10;;;;;;;8.06;65.30;102051.97;6195137;23;20516;-67
2023/12/14 13:51:21;;;;;;;8.07;5.65;;;;;;;8.07;65.00;102047.44;6195284;23;20541;-67
2023/12/14 13:53:48;;;;;;;7.03;5.22;;;;;;;8.06;65.11;102059.16;6194629;23;20018;-66
2023/12/14 13:56:16;;;;;;;6.93;5.07;;;;;;;8.05;64.86;102073.56;6194124;23;20029;-67
2023/12/14 13:58:46;;;;;;;9.80;5.05;;;;;;;8.09;65.96;102066.84;6195349;23;20052;-67
2023/12/14 14:01:14;;;;;;;8.18;5.55;;;;;;;8.07;65.25;102066.19;6195649;23;20025;-66
2023/12/14 14:03:43;;;;;;;6.80;5.07;;;;;;;8.07;65.27;102074.22;6195144;23;20025;-67
2023/12/14 14:06:11;;;;;;;11.18;5.45;;;;;;;8.10;65.01;102060.47;6195501;23;20032;-67
2023/12/14 14:08:39;;;;;;;7.72;5.57;;;;;;;8.08;65.60;102065.16;6196257;23;20362;-67
2023/12/14 14:11:07;;;;;;;7.75;5.05;;;;;;;8.09;65.71;102074.88;6195319;23;20025;-67
2023/12/14 14:13:37;;;;;;;7.63;5.38;;;;;;;8.10;65.18;102072.00;6195540;23;20071;-67
2023/12/14 14:16:08;;;;;;;8.55;5.97;;;;;;;8.11;65.59;102089.75;6195584;23;20021;-66
2023/12/14 14:18:35;;;;;;;7.57;4.72;;;;;;;8.10;65.22;102095.28;6195590;23;20025;-65
2023/12/14 14:21:07;;;;;;;7.97;5.55;;;;;;;8.13;65.29;102097.59;6196568;23;20031;-69
2023/12/14 14:23:35;;;;;;;7.50;4.95;;;;;;;8.06;65.87;102088.59;6195960;23;20108;-68
2023/12/14 14:26:03;;;;;;;8.75;5.30;;;;;;;8.13;65.57;102098.44;6194512;23;20025;-68
2023/12/14 14:28:31;;;;;;;7.47;4.82;;;;;;;8.11;65.64;102107.66;6195776;23;20045;-68
2023/12/14 14:30:59;;;;;;;10.30;5.35;;;;;;;8.13;65.58;102109.16;6196308;23;20031;-68
2023/12/14 14:33:28;;;;;;;7.35;5.32;;;;;;;8.13;65.82;102116.34;6195918;23;20358;-69
2023/12/14 14:35:56;;;;;;;7.93;5.55;;;;;;;8.14;66.16;102116.19;6195448;23;20107;-69
2023/12/14 14:38:24;;;;;;;9.10;5.40;;;;;;;8.14;65.49;102120.69;6195996;23;20541;-69
2023/12/14 14:40:52;;;;;;;6.65;5.40;;;;;;;8.15;65.67;102125.03;6195590;23;20055;-67
2023/12/14 14:43:20;;;;;;;8.10;5.03;;;;;;;8.14;65.86;102128.72;6196026;23;20027;-68
2023/12/14 14:45:48;;;;;;;7.82;5.68;;;;;;;8.15;65.62;102138.44;6196227;23;20029;-68
2023/12/14 14:48:17;;;;;;;7.25;5.78;;;;;;;8.14;66.67;102145.63;6196135;23;20056;-67
2023/12/14 14:50:46;;;;;;;7.30;5.38;;;;;;;8.16;65.38;102150.81;6196222;23;20029;-68
2023/12/14 14:53:14;;;;;;;6.90;5.03;;;;;;;8.14;65.49;102145.63;6195489;23;20025;-69
2023/12/14 14:55:42;;;;;;;8.60;5.53;;;;;;;8.18;65.75;102151.47;6194998;23;20021;-68
2023/12/14 14:58:10;;;;;;;8.77;5.30;;;;;;;8.18;65.75;102148.78;6194535;23;20076;-63
2023/12/14 15:00:38;;;;;;;8.90;5.60;;;;;;;8.20;66.07;102160.16;6196116;23;20035;-64
2023/12/14 15:03:09;;;;;;;8.55;5.97;;;;;;;8.16;66.46;102154.31;6190966;23;20081;-65
2023/12/14 15:05:38;;;;;;;8.73;5.38;;;;;;;8.14;66.37;102161.69;6191732;23;20025;-64
2023/12/14 15:08:07;;;;;;;9.50;6.85;;;;;;;8.14;66.32;102160.84;6190743;23;20036;-64
2023/12/14 15:10:35;;;;;;;10.38;5.75;;;;;;;8.15;66.36;102162.53;6190994;23;20450;-65
2023/12/14 15:13:03;;;;;;;10.75;6.35;;;;;;;8.16;66.67;102172.22;6190974;23;20028;-66
2023/12/14 15:15:31;;;;;;;7.20;5.03;;;;;;;8.16;66.14;102175.75;6191008;23;20024;-65
2023/12/14 15:17:59;;;;;;;12.40;5.57;;;;;;;8.15;66.32;102179.44;6190399;23;20028;-65
2023/12/14 15:20:27;;;;;;;9.93;5.75;;;;;;;8.15;66.48;102184.78;6191519;23;20031;-65
2023/12/14 15:22:55;;;;;;;10.20;6.60;;;;;;;8.14;66.52;102182.28;6190499;23;20599;-64
2023/12/14 15:25:24;;;;;;;8.18;5.57;;;;;;;8.17;66.19;102192.66;6191218;23;20027;-64
2023/12/14 15:27:52;;;;;;;7.57;5.80;;;;;;;8.18;66.14;102201.53;6190209;23;20025;-64
2023/12/14 15:30:20;;;;;;;8.02;5.43;;;;;;;8.19;66.72;102190.63;6190373;23;20039;-64
2023/12/14 15:32:48;;;;;;;7.65;5.07;;;;;;;8.19;66.67;102196.00;6190984;23;20103;-65
2023/12/14 15:35:16;;;;;;;8.35;5.55;;;;;;;8.20;66.47;102186.94;6191437;23;20585;-65
2023/12/14 15:37:44;;;;;;;10.35;5.43;;;;;;;8.21;66.89;102191.28;6190775;23;20096;-67
2023/12/14 15:40:12;;;;;;;8.90;5.82;;;;;;;8.24;66.58;102206.19;6190929;23;20059;-67
2023/12/14 15:42:41;;;;;;;7.50;5.32;;;;;;;8.24;66.70;102198.97;6190485;23;20048;-66
2023/12/14 15:45:09;;;;;;;7.22;5.35;;;;;;;8.23;66.43;102208.03;6191813;23;20021;-64
2023/12/14 15:47:37;;;;;;;8.30;5.45;;;;;;;8.24;66.54;102209.69;6191016;23;20068;-64
2023/12/14 15:50:07;;;;;;;9.90;6.30;;;;;;;8.23;66.58;102218.75;6189890;23;20028;-67
2023/12/14 15:52:35;;;;;;;9.60;6.28;;;;;;;8.16;66.63;102204.38;6190839;23;20083;-69
2023/12/14 15:55:06;;;;;;;9.90;5.78;;;;;;;8.25;67.11;102219.41;6191232;23;20021;-69
2023/12/14 15:57:34;;;;;;;7.85;5.68;;;;;;;8.26;66.55;102225.59;6190295;23;20025;-67
2023/12/14 16:00:05;;;;;;;7.30;5.18;;;;;;;8.22;66.40;102227.78;6191398;23;20032;-67
2023/12/14 16:02:32;;;;;;;10.27;5.75;;;;;;;8.28;67.00;102237.81;6191321;23;20032;-61
2023/12/14 16:05:02;;;;;;;8.90;5.45;;;;;;;8.41;66.66;102237.28;6193481;23;20028;-70
2023/12/14 16:07:30;;;;;;;8.07;5.30;;;;;;;8.59;66.10;102237.03;6192629;23;20045;-69
2023/12/14 16:09:57;;;;;;;10.48;6.03;;;;;;;8.68;65.09;102230.59;6195348;23;20029;-69
2023/12/14 16:12:25;;;;;;;7.53;5.43;;;;;;;8.95;64.46;102245.38;6194842;23;20398;-68
2023/12/14 16:14:56;;;;;;;6.47;5.07;;;;;;;9.17;64.13;102255.28;6195255;23;20017;-68
2023/12/14 16:17:25;;;;;;;9.05;5.22;;;;;;;9.31;63.89;102259.88;6195662;23;20021;-68
2023/12/14 16:19:53;;;;;;;9.43;5.75;;;;;;;9.50;63.22;102263.94;6195192;23;20036;-69
2023/12/14 16:22:21;;;;;;;10.38;5.43;;;;;;;9.66;62.68;102261.09;6196427;23;20080;-68
2023/12/14 16:24:49;;;;;;;10.48;5.55;;;;;;;9.86;61.83;102263.28;6196403;23;20021;-68
2023/12/14 16:27:18;;;;;;;10.73;6.07;;;;;;;9.96;61.31;102267.38;6195616;23;20040;-67
2023/12/14 16:29:47;;;;;;;10.25;5.82;;;;;;;9.96;61.87;102269.22;6197332;23;20044;-64